Time;durP1;ratioP1;P1;durP2;ratioP2;P2;SDS_P1;SDS_P2;PMS_P1;PMS_P2;Temp;Humidity;BMP_temperature;BMP_pressure;BME280_temperature;BME280_humidity;BME280_pressure;Samples;Min_cycle;Max_cycle;Signal;HPM_P1;HPM_P2
2022/05/20 00:00:07;;;;;;;3.95;3.25;;;;;;;11.43;58.48;95961.06;5118087;28;20203;-66
2022/05/20 00:02:34;;;;;;;3.83;3.28;;;;;;;11.44;58.85;95957.16;5119004;28;20184;-66
2022/05/20 00:05:01;;;;;;;3.85;2.90;;;;;;;11.43;58.47;95966.56;5118643;28;20215;-66
2022/05/20 00:07:27;;;;;;;3.83;2.88;;;;;;;11.36;58.84;95952.50;5118290;28;20196;-66
2022/05/20 00:09:56;;;;;;;3.78;2.90;;;;;;;11.28;59.29;95960.50;5117927;28;20202;-66
2022/05/20 00:12:22;;;;;;;5.05;3.15;;;;;;;11.25;59.21;95950.13;5118604;28;20183;-66
2022/05/20 00:14:49;;;;;;;3.92;3.05;;;;;;;11.25;59.28;95954.84;5118451;28;20192;-67
2022/05/20 00:17:16;;;;;;;3.90;2.95;;;;;;;11.21;59.47;95953.91;5117780;28;20662;-65
2022/05/20 00:19:43;;;;;;;3.40;3.00;;;;;;;11.17;59.68;95959.28;5118188;28;20191;-65
2022/05/20 00:22:11;;;;;;;4.45;2.80;;;;;;;11.19;59.87;95962.53;5118671;28;20180;-65
2022/05/20 00:25:45;;;;;;;3.72;2.90;;;;;;;11.22;59.77;95963.78;5117724;28;20316;-66
2022/05/20 00:27:27;;;;;;;5.07;2.67;;;;;;;11.16;59.94;95965.16;5118373;28;20267;-66
2022/05/20 00:29:53;;;;;;;3.70;2.78;;;;;;;11.09;59.37;95968.44;5118639;28;20191;-65
2022/05/20 00:32:20;;;;;;;3.10;2.78;;;;;;;11.06;59.63;95971.88;5118131;28;20204;-65
2022/05/20 00:34:47;;;;;;;6.18;2.80;;;;;;;11.07;59.47;95976.22;5117159;28;20200;-65
2022/05/20 00:37:14;;;;;;;4.22;2.65;;;;;;;11.07;59.87;95979.00;5118059;28;20192;-65
2022/05/20 00:39:40;;;;;;;3.85;2.70;;;;;;;11.07;59.61;95984.50;5117698;28;20192;-65
2022/05/20 00:42:13;;;;;;;2.65;2.45;;;;;;;11.07;59.23;95984.50;5116957;28;20227;-65
2022/05/20 00:44:42;;;;;;;2.65;2.45;;;;;;;11.02;59.29;95982.75;5116984;28;20207;-66
2022/05/20 00:47:09;;;;;;;3.78;2.78;;;;;;;11.05;59.77;95978.53;5116996;28;20599;-66
2022/05/20 00:49:36;;;;;;;2.78;2.58;;;;;;;11.07;59.44;95985.34;5118133;28;20274;-66
2022/05/20 00:52:06;;;;;;;3.47;2.65;;;;;;;11.07;59.87;95985.34;5118193;28;20180;-65
2022/05/20 00:54:35;;;;;;;3.33;2.35;;;;;;;10.98;59.81;95989.28;5117178;28;20192;-66
2022/05/20 00:57:06;;;;;;;3.50;2.90;;;;;;;10.89;59.78;95988.50;5118135;28;20192;-66
2022/05/20 00:59:36;;;;;;;3.60;2.70;;;;;;;10.83;60.26;95982.38;5118172;28;20194;-66
2022/05/20 01:02:08;;;;;;;9.10;3.22;;;;;;;10.80;60.19;95983.84;5117004;28;20207;-65
2022/05/20 01:04:35;;;;;;;4.97;2.90;;;;;;;10.76;60.02;95982.09;5117379;28;20539;-65
2022/05/20 01:07:02;;;;;;;4.18;2.70;;;;;;;10.69;60.48;95976.28;5116700;28;20184;-66
2022/05/20 01:09:29;;;;;;;2.78;2.50;;;;;;;10.65;60.38;95976.13;5116521;28;20204;-66
2022/05/20 01:11:56;;;;;;;3.80;2.55;;;;;;;10.65;61.25;95981.66;5117723;28;20199;-65
2022/05/20 01:14:25;;;;;;;3.38;2.72;;;;;;;10.64;60.57;95974.53;5117804;28;20558;-65
2022/05/20 01:16:53;;;;;;;4.07;2.80;;;;;;;10.65;60.90;95964.28;5116636;28;20559;-65
2022/05/20 01:19:28;;;;;;;2.60;2.40;;;;;;;10.63;60.13;95970.13;5116764;28;20192;-66
2022/05/20 01:21:55;;;;;;;3.25;2.72;;;;;;;10.66;60.17;95968.66;5117494;28;20184;-66
2022/05/20 01:24:24;;;;;;;4.18;2.42;;;;;;;10.66;60.69;95965.91;5117370;28;20215;-66
2022/05/20 01:26:51;;;;;;;3.80;2.72;;;;;;;10.65;61.03;95964.28;5117295;28;20188;-66
2022/05/20 01:29:18;;;;;;;2.88;2.50;;;;;;;10.63;60.49;95963.81;5116460;28;20207;-66
2022/05/20 01:31:44;;;;;;;4.40;2.70;;;;;;;10.56;60.64;95961.56;5116429;28;20195;-65
2022/05/20 01:34:12;;;;;;;2.65;2.45;;;;;;;10.50;60.78;95962.91;5116605;28;20207;-66
2022/05/20 01:36:39;;;;;;;3.13;2.58;;;;;;;10.40;60.36;95966.81;5116313;28;20196;-66
2022/05/20 01:39:06;;;;;;;2.95;2.65;;;;;;;10.33;60.93;95967.31;5117195;28;20184;-66
2022/05/20 01:41:39;;;;;;;4.75;3.08;;;;;;;10.31;60.48;95966.03;5116053;28;20223;-66
2022/05/20 01:44:10;;;;;;;6.40;3.13;;;;;;;10.28;60.77;95964.75;5116757;28;20196;-66
2022/05/20 01:46:41;;;;;;;3.50;2.40;;;;;;;10.28;61.08;95973.03;5116013;28;20192;-66
2022/05/20 01:49:25;;;;;;;3.67;3.05;;;;;;;10.31;60.72;95975.13;5116608;28;20249;-66
2022/05/20 01:51:58;;;;;;;3.80;2.80;;;;;;;10.34;61.03;95976.41;5115798;28;20188;-66
2022/05/20 01:54:31;;;;;;;6.65;3.03;;;;;;;10.32;61.34;95967.66;5115773;28;20195;-66
2022/05/20 01:57:05;;;;;;;4.75;2.90;;;;;;;10.29;60.66;95980.16;5115779;28;20207;-66
2022/05/20 01:59:34;;;;;;;3.58;2.90;;;;;;;10.30;60.90;95980.97;5115975;28;20199;-66
2022/05/20 02:02:04;;;;;;;4.03;3.05;;;;;;;10.31;61.92;95983.41;5115745;28;20192;-66
2022/05/20 02:04:34;;;;;;;4.72;3.10;;;;;;;10.33;61.82;95974.78;5116258;28;20566;-65
2022/05/20 02:07:04;;;;;;;4.95;3.17;;;;;;;10.30;61.76;95970.75;5116301;28;20592;-66
2022/05/20 02:09:36;;;;;;;5.88;3.35;;;;;;;10.25;61.22;95970.09;5116137;28;20195;-66
2022/05/20 02:12:06;;;;;;;5.40;3.53;;;;;;;10.17;61.53;95977.25;5116525;28;20223;-66
2022/05/20 02:14:36;;;;;;;5.45;3.90;;;;;;;10.09;61.35;95981.66;5115713;28;20200;-66
2022/05/20 02:17:11;;;;;;;8.35;3.72;;;;;;;10.01;61.40;95978.88;5116403;28;20214;-66
2022/05/20 02:19:40;;;;;;;10.40;3.70;;;;;;;10.02;61.62;95975.81;5116372;28;20203;-66
2022/05/20 02:22:11;;;;;;;5.30;3.55;;;;;;;10.02;61.99;95980.50;5116359;28;20199;-66
2022/05/20 02:24:39;;;;;;;7.15;3.83;;;;;;;9.98;61.63;95980.34;5115232;28;20247;-66
2022/05/20 02:27:09;;;;;;;5.20;4.55;;;;;;;9.91;61.37;95985.53;5115702;28;20188;-66
2022/05/20 02:29:39;;;;;;;7.75;4.30;;;;;;;9.92;61.61;95989.13;5115909;28;20188;-66
2022/05/20 02:32:08;;;;;;;6.32;4.38;;;;;;;9.92;62.31;95994.66;5116140;28;20188;-64
2022/05/20 02:34:35;;;;;;;4.35;3.92;;;;;;;9.90;61.84;95994.94;5115330;28;20199;-64
2022/05/20 02:37:02;;;;;;;5.80;3.90;;;;;;;9.92;62.08;95991.88;5116054;28;20188;-66
2022/05/20 02:39:29;;;;;;;4.53;3.75;;;;;;;9.88;61.86;95992.53;5115587;28;20622;-65
2022/05/20 02:41:56;;;;;;;6.95;3.53;;;;;;;9.91;62.33;95990.25;5115735;28;20238;-65
2022/05/20 02:44:24;;;;;;;8.45;4.20;;;;;;;9.89;61.99;95985.88;5115700;28;20199;-65
2022/05/20 02:46:51;;;;;;;5.85;4.35;;;;;;;9.93;62.19;95988.00;5115788;28;20187;-65
2022/05/20 02:49:18;;;;;;;5.60;4.00;;;;;;;9.93;62.69;95983.28;5115013;28;20227;-64
2022/05/20 02:51:45;;;;;;;6.90;4.40;;;;;;;9.92;62.08;95969.84;5116090;28;20203;-64
2022/05/20 02:54:11;;;;;;;6.70;3.97;;;;;;;9.86;62.04;95977.47;5114983;28;20202;-65
2022/05/20 02:56:38;;;;;;;7.93;4.40;;;;;;;9.81;62.67;95978.44;5116070;28;20199;-65
2022/05/20 03:04:35;;;;;;;8.32;4.15;;;;;;;9.58;62.54;95979.75;5115460;28;20199;-64
2022/05/20 03:07:03;;;;;;;8.73;3.90;;;;;;;9.48;62.40;95980.09;5115644;28;20615;-65
2022/05/20 03:09:29;;;;;;;5.05;3.85;;;;;;;9.48;62.94;95980.09;5115633;28;20188;-65
2022/05/20 03:11:57;;;;;;;9.77;5.05;;;;;;;9.49;62.68;95989.97;5115268;28;20187;-65
2022/05/20 03:14:24;;;;;;;8.32;4.15;;;;;;;9.50;62.79;95986.06;5114384;28;20659;-65
2022/05/20 03:16:52;;;;;;;7.55;4.07;;;;;;;9.49;62.51;95987.22;5114588;28;20202;-65
2022/05/20 03:19:19;;;;;;;6.85;4.07;;;;;;;9.48;62.95;95978.13;5114911;28;20199;-65
2022/05/20 03:21:46;;;;;;;7.30;3.47;;;;;;;9.50;62.72;95986.88;5115213;28;20187;-65
2022/05/20 03:24:14;;;;;;;4.95;3.60;;;;;;;9.51;63.13;95980.22;5115408;28;20198;-65
2022/05/20 03:26:41;;;;;;;8.32;4.00;;;;;;;9.53;63.07;95974.41;5114448;28;20199;-65
2022/05/20 03:29:08;;;;;;;6.03;3.70;;;;;;;9.55;63.24;95988.63;5117124;28;20187;-65
2022/05/20 03:31:36;;;;;;;8.57;4.38;;;;;;;9.51;62.79;95985.72;5119314;28;20199;-66
2022/05/20 03:34:06;;;;;;;9.82;4.40;;;;;;;9.49;63.48;95989.97;5119289;28;20659;-66
2022/05/20 03:36:34;;;;;;;7.78;4.60;;;;;;;9.54;63.29;95998.03;5118738;28;20188;-66
2022/05/20 03:39:01;;;;;;;6.63;4.03;;;;;;;9.58;62.70;95996.25;5118626;28;20604;-67
2022/05/20 03:41:28;;;;;;;5.47;4.18;;;;;;;9.65;62.17;96002.91;5119184;28;20304;-66
2022/05/20 03:43:55;;;;;;;4.80;3.30;;;;;;;9.69;62.26;96005.00;5119446;28;20195;-66
2022/05/20 03:46:21;;;;;;;4.70;3.28;;;;;;;9.75;61.65;96014.75;5118378;28;20216;-66
2022/05/20 03:48:48;;;;;;;3.45;3.17;;;;;;;9.75;61.32;96004.53;5118386;28;20204;-68
2022/05/20 03:51:16;;;;;;;3.25;2.90;;;;;;;9.74;61.56;96019.44;5119307;28;20188;-66
2022/05/20 03:53:44;;;;;;;5.53;2.92;;;;;;;9.77;61.13;96021.56;5119250;28;20176;-68
2022/05/20 03:56:11;;;;;;;4.82;3.00;;;;;;;9.76;60.95;96022.66;5118869;28;20192;-68
2022/05/20 03:58:38;;;;;;;4.70;3.25;;;;;;;9.77;60.68;96021.56;5118139;28;20191;-66
2022/05/20 04:03:50;;;;;;;5.82;3.55;;;;;;;9.80;61.58;96029.19;5118831;28;20611;-67
2022/05/20 04:06:19;;;;;;;4.82;3.90;;;;;;;9.83;61.26;96033.22;5118931;28;20210;-66
2022/05/20 04:08:46;;;;;;;3.90;2.92;;;;;;;9.88;61.04;96033.06;5118942;28;20216;-66
2022/05/20 04:11:14;;;;;;;4.72;3.60;;;;;;;9.90;60.36;96030.78;5118613;28;20283;-66
2022/05/20 04:13:42;;;;;;;6.03;3.22;;;;;;;9.91;60.51;96029.63;5117918;28;20195;-66
2022/05/20 04:16:10;;;;;;;3.88;3.00;;;;;;;9.93;60.47;96029.31;5117810;28;20195;-66
2022/05/20 04:18:37;;;;;;;4.53;3.13;;;;;;;9.93;59.87;96035.66;5118440;28;20202;-66
2022/05/20 04:21:04;;;;;;;4.38;3.50;;;;;;;9.92;60.66;96024.97;5118731;28;20195;-66
2022/05/20 04:23:33;;;;;;;5.15;3.47;;;;;;;9.95;60.28;96027.88;5118675;28;20179;-66
2022/05/20 04:26:00;;;;;;;4.20;3.55;;;;;;;9.95;61.18;96030.63;5118372;28;20212;-66
2022/05/20 04:28:26;;;;;;;3.70;3.35;;;;;;;9.99;61.99;96025.28;5118639;28;20572;-66
2022/05/20 04:30:57;;;;;;;6.57;3.50;;;;;;;9.97;61.32;96028.34;5117474;28;20195;-66
2022/05/20 04:33:24;;;;;;;3.75;3.45;;;;;;;9.99;61.78;96019.75;5118427;28;20195;-66
2022/05/20 04:35:50;;;;;;;4.72;3.78;;;;;;;9.95;62.18;96022.38;5118106;28;20608;-66
2022/05/20 04:38:17;;;;;;;6.18;4.18;;;;;;;9.99;62.46;96025.28;5117487;28;20210;-66
2022/05/20 04:46:56;;;;;;;5.30;4.82;;;;;;;10.01;61.90;96036.75;5115838;28;20214;-66
2022/05/20 04:49:01;;;;;;;7.07;3.95;;;;;;;10.14;61.51;96038.56;5117836;28;20196;-66
2022/05/20 04:51:27;;;;;;;5.47;4.00;;;;;;;10.24;61.68;96034.63;5118201;28;20206;-66
2022/05/20 04:56:40;;;;;;;5.22;3.75;;;;;;;10.36;60.32;96046.66;5117030;28;20230;-66
2022/05/20 04:59:06;;;;;;;3.78;3.15;;;;;;;10.39;60.84;96050.69;5117559;28;20192;-66
2022/05/20 05:01:33;;;;;;;5.85;3.60;;;;;;;10.45;60.51;96048.56;5117061;28;20192;-66
2022/05/20 05:04:00;;;;;;;6.47;3.38;;;;;;;10.49;61.56;96044.81;5117018;28;20199;-66
2022/05/20 05:06:27;;;;;;;5.07;3.40;;;;;;;10.48;61.57;96043.19;5116923;28;20219;-66
2022/05/20 05:08:54;;;;;;;6.13;3.53;;;;;;;10.50;61.13;96045.66;5117719;28;20176;-66
2022/05/20 05:11:21;;;;;;;3.97;3.60;;;;;;;10.52;61.45;96048.88;5116860;28;20203;-66
2022/05/20 05:13:49;;;;;;;4.15;3.53;;;;;;;10.53;61.26;96048.56;5116978;28;20223;-66
2022/05/20 05:16:15;;;;;;;4.07;3.67;;;;;;;10.59;61.12;96051.94;5117700;28;20187;-66
2022/05/20 05:18:42;;;;;;;4.90;3.97;;;;;;;10.63;60.95;96054.84;5116657;28;20191;-66
2022/05/20 05:21:13;;;;;;;4.88;3.58;;;;;;;10.66;61.09;96051.44;5116983;28;20207;-66
2022/05/20 05:23:40;;;;;;;4.38;3.95;;;;;;;10.71;61.03;96046.56;5117506;28;20207;-66
2022/05/20 05:26:07;;;;;;;3.67;3.33;;;;;;;10.75;61.42;96047.50;5116082;28;20665;-66
2022/05/20 05:28:34;;;;;;;4.15;3.78;;;;;;;10.78;61.38;96038.59;5117372;28;20194;-66
2022/05/20 05:31:03;;;;;;;4.68;3.58;;;;;;;10.84;60.76;96045.50;5117382;28;20184;-66
2022/05/20 05:33:30;;;;;;;4.43;4.03;;;;;;;10.87;59.75;96052.34;5116956;28;20611;-69
2022/05/20 05:35:57;;;;;;;6.10;4.07;;;;;;;10.93;60.68;96044.66;5117241;28;20183;-67
2022/05/20 05:38:23;;;;;;;8.60;4.60;;;;;;;10.95;60.39;96042.41;5116911;28;20596;-67
2022/05/20 05:40:50;;;;;;;5.57;4.47;;;;;;;10.98;60.51;96048.06;5116916;28;20180;-66
2022/05/20 05:43:17;;;;;;;7.38;3.45;;;;;;;11.04;59.39;96043.19;5117050;28;20194;-66
2022/05/20 05:45:44;;;;;;;5.50;3.42;;;;;;;11.09;59.09;96040.22;5116922;28;20211;-67
2022/05/20 05:48:15;;;;;;;3.97;3.63;;;;;;;11.17;59.77;96044.06;5116329;28;20203;-66
2022/05/20 05:50:42;;;;;;;4.43;3.97;;;;;;;11.23;59.81;96048.28;5115974;28;20210;-67
2022/05/20 05:53:11;;;;;;;5.95;3.92;;;;;;;11.25;59.82;96044.00;5115598;28;20207;-66
2022/05/20 05:55:38;;;;;;;4.47;4.07;;;;;;;11.32;59.88;96040.72;5116873;28;20199;-66
2022/05/20 05:58:05;;;;;;;5.70;5.10;;;;;;;11.36;60.48;96041.69;5116804;28;20184;-66
2022/05/20 06:00:32;;;;;;;7.32;6.60;;;;;;;11.41;59.86;96043.47;5116782;28;20187;-66
2022/05/20 06:02:59;;;;;;;7.38;6.53;;;;;;;11.46;60.21;96043.25;5115811;28;20200;-66
2022/05/20 06:05:28;;;;;;;5.43;4.90;;;;;;;11.53;59.94;96038.81;5116013;28;20546;-66
2022/05/20 06:07:56;;;;;;;6.30;4.78;;;;;;;11.63;59.34;96036.81;5116033;28;20223;-66
2022/05/20 06:10:23;;;;;;;5.38;4.85;;;;;;;11.70;58.76;96037.88;5116584;28;20176;-66
2022/05/20 06:12:50;;;;;;;5.00;4.60;;;;;;;11.81;59.37;96033.56;5115574;28;20223;-66
2022/05/20 06:15:22;;;;;;;5.43;4.90;;;;;;;11.87;59.93;96028.66;5115600;28;20184;-66
2022/05/20 06:17:48;;;;;;;5.68;4.90;;;;;;;11.89;59.76;96034.69;5116658;28;20192;-66
2022/05/20 06:20:16;;;;;;;6.43;4.35;;;;;;;11.94;59.13;96026.16;5115257;28;20294;-66
2022/05/20 06:22:44;;;;;;;6.82;5.53;;;;;;;12.02;58.88;96032.78;5115100;28;20225;-66
2022/05/20 06:25:12;;;;;;;7.80;4.88;;;;;;;12.07;59.50;96023.47;5115460;28;20215;-66
2022/05/20 06:27:39;;;;;;;4.90;4.50;;;;;;;12.11;58.66;96027.97;5115393;28;20200;-66
2022/05/20 06:30:09;;;;;;;6.22;5.53;;;;;;;12.21;58.69;96024.00;5116207;28;20180;-66
2022/05/20 06:32:36;;;;;;;9.57;6.30;;;;;;;12.31;58.00;96018.03;5116149;28;20215;-66
2022/05/20 06:40:35;;;;;;;8.50;7.68;;;;;;;12.55;57.64;96025.59;5115760;28;20235;-66
2022/05/20 06:43:04;;;;;;;7.40;6.45;;;;;;;12.60;57.37;96028.16;5116048;28;20250;-66
2022/05/20 06:45:31;;;;;;;8.52;6.70;;;;;;;12.65;56.83;96021.59;5115846;28;20214;-66
2022/05/20 06:47:58;;;;;;;6.60;6.00;;;;;;;12.70;56.75;96022.16;5114947;28;20260;-66
2022/05/20 06:50:26;;;;;;;9.50;6.22;;;;;;;12.77;56.46;96021.59;5115697;28;20230;-66
2022/05/20 06:52:55;;;;;;;8.05;5.15;;;;;;;12.85;56.48;96022.63;5114914;28;20225;-66
2022/05/20 06:55:21;;;;;;;6.57;5.65;;;;;;;12.94;55.93;96024.16;5115596;28;20202;-66
2022/05/20 06:57:48;;;;;;;5.88;5.10;;;;;;;12.99;55.55;96020.34;5115866;28;20180;-66
2022/05/20 07:00:16;;;;;;;6.68;5.35;;;;;;;13.04;55.59;96022.09;5115351;28;20619;-66
2022/05/20 07:02:44;;;;;;;6.97;5.43;;;;;;;13.07;55.34;96022.22;5115323;28;20248;-66
2022/05/20 07:05:11;;;;;;;7.03;5.78;;;;;;;13.09;55.22;96021.84;5115138;28;20203;-66
2022/05/20 07:07:39;;;;;;;7.13;5.90;;;;;;;13.17;54.77;96018.16;5115190;28;20211;-66
2022/05/20 07:10:10;;;;;;;8.65;5.97;;;;;;;13.21;54.33;96019.06;5114851;28;20191;-66
2022/05/20 07:12:38;;;;;;;5.85;5.25;;;;;;;13.24;54.45;96010.91;5114818;28;20199;-66
2022/05/20 07:15:05;;;;;;;7.68;6.05;;;;;;;13.30;54.34;96017.03;5114760;28;20192;-67
2022/05/20 07:17:32;;;;;;;8.73;5.85;;;;;;;13.35;53.82;96016.00;5114349;28;20206;-66
2022/05/20 07:19:59;;;;;;;7.20;5.35;;;;;;;13.42;53.80;96016.22;5114610;28;20195;-66
2022/05/20 07:22:27;;;;;;;6.80;4.93;;;;;;;13.43;52.92;96017.81;5115594;28;20183;-67
2022/05/20 07:24:55;;;;;;;6.45;5.40;;;;;;;13.48;52.76;96017.59;5114598;28;20574;-66
2022/05/20 07:27:23;;;;;;;5.65;4.80;;;;;;;13.53;53.06;96017.34;5114580;28;20258;-66
2022/05/20 07:29:50;;;;;;;5.22;4.72;;;;;;;13.58;52.41;96021.84;5114240;28;20599;-67
2022/05/20 07:32:17;;;;;;;7.47;4.80;;;;;;;13.67;53.26;96019.75;5115623;28;20184;-67
2022/05/20 07:34:44;;;;;;;7.45;4.90;;;;;;;13.81;53.57;96005.53;5115387;28;20188;-67
2022/05/20 07:37:11;;;;;;;7.03;5.10;;;;;;;13.97;53.53;96009.16;5115378;28;20176;-67
2022/05/20 07:39:37;;;;;;;7.40;4.97;;;;;;;13.99;52.20;96012.41;5115046;28;20205;-67
2022/05/20 07:42:05;;;;;;;5.57;4.43;;;;;;;14.00;51.88;96005.69;5115106;28;20263;-66
2022/05/20 07:44:36;;;;;;;5.35;4.32;;;;;;;14.06;52.33;96004.28;5115364;28;20187;-66
2022/05/20 07:47:03;;;;;;;4.75;3.92;;;;;;;14.18;52.59;96003.41;5114318;28;20221;-66
2022/05/20 07:49:29;;;;;;;6.07;3.72;;;;;;;14.28;53.40;96002.09;5114853;28;20199;-66
2022/05/20 07:51:57;;;;;;;4.55;3.20;;;;;;;14.38;51.05;95996.84;5115087;28;20194;-66
2022/05/20 07:54:26;;;;;;;3.67;2.97;;;;;;;14.51;50.63;95996.81;5115287;28;20184;-66
2022/05/20 07:56:57;;;;;;;5.10;3.10;;;;;;;14.61;49.68;95988.75;5114842;28;20200;-66
2022/05/20 07:59:27;;;;;;;5.47;2.70;;;;;;;14.66;49.09;95994.03;5115251;28;20191;-66
2022/05/20 08:01:56;;;;;;;3.83;2.78;;;;;;;14.72;48.76;95979.91;5115179;28;20203;-66
2022/05/20 08:07:10;;;;;;;3.17;2.90;;;;;;;14.87;47.59;95981.88;5115092;28;20260;-66
2022/05/20 08:09:37;;;;;;;3.65;2.75;;;;;;;15.12;47.68;95977.75;5114151;28;20206;-66
2022/05/20 08:12:05;;;;;;;4.40;2.60;;;;;;;15.39;48.89;95975.97;5114154;28;20208;-66
2022/05/20 08:14:32;;;;;;;4.60;2.63;;;;;;;15.48;48.67;95977.78;5115306;28;20188;-66
2022/05/20 08:17:01;;;;;;;3.63;2.40;;;;;;;15.53;46.84;95974.72;5118533;28;20176;-66
2022/05/20 08:19:28;;;;;;;2.45;2.22;;;;;;;15.61;46.80;95973.69;5117751;28;20199;-66
2022/05/20 08:21:55;;;;;;;3.15;2.47;;;;;;;15.71;46.50;95970.38;5118784;28;20180;-67
2022/05/20 08:24:22;;;;;;;2.42;2.22;;;;;;;15.86;45.54;95965.91;5118441;28;20195;-67
2022/05/20 08:26:50;;;;;;;3.50;2.22;;;;;;;15.97;44.50;95972.50;5118239;28;20211;-66
2022/05/20 08:29:17;;;;;;;1.95;1.70;;;;;;;16.05;43.30;95967.91;5118376;28;20184;-66
2022/05/20 08:31:46;;;;;;;3.03;1.95;;;;;;;16.13;43.84;95966.88;5118420;28;20192;-66
2022/05/20 08:34:14;;;;;;;2.50;2.20;;;;;;;16.23;43.59;95966.31;5117809;28;20202;-66
2022/05/20 08:36:41;;;;;;;2.13;1.70;;;;;;;16.33;42.23;95967.66;5117482;28;20600;-66
2022/05/20 08:39:10;;;;;;;2.47;1.85;;;;;;;16.48;43.58;95950.03;5117183;28;20199;-66
2022/05/20 08:41:41;;;;;;;2.47;2.00;;;;;;;16.53;41.93;95952.53;5117135;28;20234;-66
2022/05/20 08:44:12;;;;;;;3.58;2.33;;;;;;;16.53;41.86;95949.75;5117731;28;20238;-66
2022/05/20 08:46:39;;;;;;;3.30;2.10;;;;;;;16.53;40.87;95949.75;5117828;28;20207;-66
2022/05/20 08:49:07;;;;;;;2.13;2.00;;;;;;;16.57;42.58;95944.25;5117927;28;20608;-66
2022/05/20 08:51:36;;;;;;;2.75;1.90;;;;;;;16.84;43.42;95948.72;5117845;28;20612;-66
2022/05/20 08:54:04;;;;;;;3.42;1.90;;;;;;;16.98;43.18;95947.38;5117539;28;20203;-66
2022/05/20 08:56:31;;;;;;;2.67;2.10;;;;;;;17.03;41.39;95941.47;5117255;28;20229;-66
2022/05/20 08:59:01;;;;;;;3.40;2.10;;;;;;;17.25;42.95;95943.44;5116833;28;20294;-66
2022/05/20 09:01:30;;;;;;;3.08;2.15;;;;;;;17.50;42.34;95932.66;5116746;28;20195;-66
2022/05/20 09:03:57;;;;;;;2.40;1.77;;;;;;;17.62;42.03;95925.22;5117921;28;20203;-66
2022/05/20 09:06:24;;;;;;;2.50;2.28;;;;;;;17.86;42.43;95918.38;5116855;28;20215;-66
2022/05/20 09:09:07;;;;;;;2.28;1.90;;;;;;;18.06;43.00;95919.84;5116417;28;20183;-66
2022/05/20 09:11:34;;;;;;;4.15;2.55;;;;;;;18.17;41.28;95917.97;5117745;28;20180;-66
2022/05/20 09:17:12;;;;;;;2.95;2.10;;;;;;;18.38;41.15;95902.66;5081219;28;20588;-66
2022/05/20 09:19:40;;;;;;;2.97;2.08;;;;;;;18.41;39.90;95899.88;5117615;28;20190;-66
2022/05/20 09:22:09;;;;;;;1.90;1.80;;;;;;;18.51;41.96;95895.56;5117739;28;20260;-66
2022/05/20 09:24:40;;;;;;;3.65;2.38;;;;;;;18.65;38.68;95894.91;5117423;28;20190;-67
2022/05/20 09:27:08;;;;;;;2.85;1.73;;;;;;;18.69;37.35;95890.16;5116357;28;20219;-67
2022/05/20 09:29:39;;;;;;;2.92;1.90;;;;;;;18.73;35.66;95880.63;5117436;28;20188;-66
2022/05/20 09:32:07;;;;;;;3.00;1.40;;;;;;;18.81;34.13;95884.31;5116661;28;20206;-66
2022/05/20 09:34:36;;;;;;;1.70;1.45;;;;;;;18.92;31.24;95884.41;5116003;28;20195;-66
2022/05/20 09:37:05;;;;;;;1.40;1.30;;;;;;;19.04;31.89;95881.28;5117261;28;20212;-66
2022/05/20 09:39:34;;;;;;;2.22;1.60;;;;;;;19.20;33.93;95870.59;5116413;28;20202;-66
2022/05/20 09:42:12;;;;;;;1.42;1.30;;;;;;;19.61;34.70;95872.47;5116216;28;20678;-66
2022/05/20 09:44:40;;;;;;;3.38;1.60;;;;;;;19.69;32.08;95863.72;5115957;28;20199;-67
2022/05/20 09:47:13;;;;;;;1.30;1.20;;;;;;;19.69;29.64;95857.34;5117280;28;20200;-67
2022/05/20 09:49:44;;;;;;;3.33;1.40;;;;;;;19.76;29.91;95859.38;5117115;28;20191;-66
2022/05/20 09:52:22;;;;;;;1.77;1.67;;;;;;;19.76;28.66;95851.78;5116037;28;20646;-66
2022/05/20 09:54:51;;;;;;;2.17;1.60;;;;;;;19.80;28.92;95860.97;5116836;28;20188;-66
2022/05/20 09:57:25;;;;;;;1.98;1.88;;;;;;;20.03;32.41;95855.06;5116054;28;20207;-66
2022/05/20 09:59:55;;;;;;;2.42;1.60;;;;;;;20.22;32.57;95853.91;5116521;28;20210;-66
2022/05/20 10:02:29;;;;;;;2.10;1.90;;;;;;;20.36;34.52;95855.94;5116499;28;20195;-66
2022/05/20 10:05:07;;;;;;;2.70;1.85;;;;;;;20.47;32.84;95848.34;5116608;28;20184;-66
2022/05/20 10:07:46;;;;;;;2.03;1.55;;;;;;;20.53;32.66;95844.00;5116380;28;20199;-66
2022/05/20 10:10:16;;;;;;;2.22;1.83;;;;;;;20.63;31.91;95840.41;5116579;28;20252;-66
2022/05/20 10:12:47;;;;;;;2.25;1.77;;;;;;;20.76;29.07;95843.59;5116435;28;20202;-66
2022/05/20 10:15:29;;;;;;;2.45;1.50;;;;;;;20.66;29.83;95830.38;5115680;28;20200;-66
2022/05/20 10:18:05;;;;;;;2.15;1.70;;;;;;;20.66;28.19;95830.38;5116513;28;20180;-66
2022/05/20 10:20:36;;;;;;;3.70;1.40;;;;;;;20.70;29.20;95828.41;5115184;28;20205;-66
2022/05/20 10:23:10;;;;;;;2.25;1.70;;;;;;;20.76;27.00;95823.16;5116013;28;20620;-66
2022/05/20 10:25:51;;;;;;;1.75;1.60;;;;;;;20.79;29.13;95825.97;5116307;28;20210;-66
2022/05/20 10:34:11;;;;;;;3.42;1.83;;;;;;;21.21;30.53;95821.53;5116243;28;20262;-66
2022/05/20 10:36:46;;;;;;;2.42;1.63;;;;;;;21.21;28.66;95812.31;5116162;28;20256;-66
2022/05/20 10:39:20;;;;;;;2.75;1.73;;;;;;;21.20;29.36;95807.88;5115569;28;20218;-66
2022/05/20 10:42:02;;;;;;;1.90;1.80;;;;;;;21.32;29.51;95805.47;5114551;28;20272;-66
2022/05/20 10:50:33;;;;;;;2.92;1.83;;;;;;;21.77;27.01;95802.13;5114806;28;20195;-66
2022/05/20 10:53:08;;;;;;;1.60;1.50;;;;;;;21.80;25.68;95799.28;5115450;28;20207;-66
2022/05/20 10:55:45;;;;;;;1.75;1.65;;;;;;;21.77;25.39;95793.69;5116049;28;20202;-66
2022/05/20 10:58:37;;;;;;;1.80;1.60;;;;;;;21.76;27.79;95792.09;5115614;28;20199;-66
2022/05/20 11:01:09;;;;;;;2.17;1.70;;;;;;;21.90;26.74;95796.84;5114869;28;20210;-66
2022/05/20 11:03:57;;;;;;;2.33;1.80;;;;;;;21.97;25.76;95777.97;5115782;28;20180;-66
2022/05/20 11:06:56;;;;;;;2.78;2.13;;;;;;;22.05;27.97;95778.72;5114519;28;20294;-66
2022/05/20 11:09:28;;;;;;;3.40;2.63;;;;;;;22.15;25.60;95777.88;5108866;28;20207;-66
2022/05/20 11:11:59;;;;;;;2.50;2.30;;;;;;;22.34;24.42;95762.50;5115746;28;20203;-66
2022/05/20 11:14:53;;;;;;;3.25;2.95;;;;;;;22.45;24.70;95768.03;5114669;28;20524;-66
2022/05/20 11:17:42;;;;;;;3.45;2.65;;;;;;;22.44;25.12;95766.41;5102547;28;20662;-66
2022/05/20 11:20:33;;;;;;;5.30;4.35;;;;;;;22.51;25.28;95760.75;5114620;28;20214;-66
2022/05/20 11:23:27;;;;;;;2.58;2.38;;;;;;;22.51;23.54;95755.13;5115524;28;20198;-66
2022/05/20 11:26:13;;;;;;;3.28;2.22;;;;;;;22.49;23.57;95755.53;5115205;28;20622;-66
2022/05/20 11:28:55;;;;;;;2.85;2.20;;;;;;;22.47;23.34;95738.28;5114508;28;20549;-66
2022/05/20 11:31:32;;;;;;;5.05;3.38;;;;;;;22.63;26.48;95749.00;5115546;28;20270;-66
2022/05/20 11:34:14;;;;;;;3.90;3.10;;;;;;;22.80;27.36;95747.22;5115547;28;20183;-66
2022/05/20 11:36:57;;;;;;;4.45;2.65;;;;;;;22.83;24.59;95737.97;5114170;28;20195;-67
2022/05/20 11:40:03;;;;;;;4.97;2.95;;;;;;;22.82;25.33;95731.53;5115616;28;20260;-66
2022/05/20 11:42:39;;;;;;;3.13;2.75;;;;;;;23.04;25.34;95734.97;5113370;28;20235;-66
2022/05/20 11:45:15;;;;;;;2.65;2.42;;;;;;;23.01;25.27;95724.53;5115367;28;20199;-66
2022/05/20 11:48:27;;;;;;;3.03;2.10;;;;;;;23.00;24.53;95724.97;5114174;28;20211;-66
2022/05/20 11:51:14;;;;;;;2.50;2.30;;;;;;;23.01;23.71;95716.09;5112659;28;20207;-67
2022/05/20 11:53:45;;;;;;;2.50;2.28;;;;;;;23.05;23.35;95721.69;5119428;28;20180;-66
2022/05/20 11:56:18;;;;;;;3.10;2.53;;;;;;;23.10;26.27;95712.03;5118466;28;20199;-67
2022/05/20 11:58:49;;;;;;;2.97;2.35;;;;;;;23.13;25.43;95706.34;5119229;28;20187;-67
2022/05/20 12:01:16;;;;;;;3.60;2.63;;;;;;;23.19;25.69;95701.03;5118502;28;20231;-65
2022/05/20 12:06:30;;;;;;;2.58;2.38;;;;;;;23.27;24.07;95694.91;5111617;28;20278;-65
2022/05/20 12:08:58;;;;;;;2.63;2.42;;;;;;;23.39;25.53;95696.38;5118911;28;20208;-65
2022/05/20 12:11:29;;;;;;;2.70;2.50;;;;;;;23.58;25.92;95691.31;5118698;28;20187;-65
2022/05/20 12:14:08;;;;;;;3.10;2.80;;;;;;;23.65;25.13;95688.41;5118725;28;20253;-65
2022/05/20 12:16:36;;;;;;;4.22;2.80;;;;;;;23.63;24.44;95683.19;5118859;28;20202;-66
2022/05/20 12:24:52;;;;;;;3.42;2.28;;;;;;;23.67;23.91;95680.34;5117295;28;20294;-65
2022/05/20 12:27:40;;;;;;;2.08;1.80;;;;;;;23.72;24.16;95671.44;5118624;28;20216;-66
2022/05/20 12:30:25;;;;;;;4.43;2.00;;;;;;;23.71;23.81;95665.00;5118240;28;20209;-65
2022/05/20 12:32:52;;;;;;;1.85;1.75;;;;;;;23.69;22.46;95670.25;5117598;28;20200;-65
2022/05/20 12:35:30;;;;;;;1.90;1.80;;;;;;;23.60;23.45;95664.31;5118201;28;20548;-65